Time;durP1;ratioP1;P1;durP2;ratioP2;P2;SDS_P1;SDS_P2;PMS_P1;PMS_P2;Temp;Humidity;BMP_temperature;BMP_pressure;BME280_temperature;BME280_humidity;BME280_pressure;Samples;Min_cycle;Max_cycle;Signal;HPM_P1;HPM_P2
2023/09/20 00:00:35;;;;;;;6.10;0.88;;;17.80;99.90;;;;;;4931448;29;20051;-87
2023/09/20 00:03:01;;;;;;;5.55;0.70;;;17.80;99.90;;;;;;4951516;28;20075;-87
2023/09/20 00:05:27;;;;;;;3.40;0.63;;;17.90;99.90;;;;;;4950134;28;20027;-86
2023/09/20 00:07:56;;;;;;;3.97;0.60;;;17.90;99.90;;;;;;4949788;29;20539;-86
2023/09/20 00:10:25;;;;;;;6.07;1.02;;;17.90;99.90;;;;;;4940772;29;20480;-87
2023/09/20 00:12:51;;;;;;;6.38;1.38;;;17.90;99.90;;;;;;4951898;29;20035;-86
2023/09/20 00:15:17;;;;;;;3.75;0.88;;;17.90;99.90;;;;;;4951374;29;20043;-87
2023/09/20 00:17:43;;;;;;;5.10;0.80;;;17.90;99.90;;;;;;4951895;28;20118;-86
2023/09/20 00:20:12;;;;;;;5.93;0.77;;;17.90;99.90;;;;;;4949105;29;20143;-87
2023/09/20 00:22:43;;;;;;;4.68;0.77;;;18.00;99.90;;;;;;4951239;28;20060;-88
2023/09/20 00:25:11;;;;;;;7.90;1.00;;;18.00;99.90;;;;;;4952016;29;20400;-88
2023/09/20 00:27:38;;;;;;;6.65;1.05;;;18.00;99.90;;;;;;4950883;28;20039;-87
2023/09/20 00:30:06;;;;;;;6.63;0.90;;;18.00;99.90;;;;;;4935178;29;20035;-86
2023/09/20 00:32:32;;;;;;;7.18;0.88;;;18.00;99.90;;;;;;4951113;28;20051;-87
2023/09/20 00:34:58;;;;;;;7.32;1.02;;;18.00;99.90;;;;;;4937134;29;20500;-87
2023/09/20 00:37:23;;;;;;;5.30;0.82;;;18.10;99.90;;;;;;4950152;29;20031;-87
2023/09/20 00:39:49;;;;;;;6.32;0.90;;;18.10;99.90;;;;;;4950510;28;20298;-87
2023/09/20 00:42:15;;;;;;;6.97;0.98;;;18.10;99.90;;;;;;4950625;28;20483;-87
2023/09/20 00:44:40;;;;;;;4.25;1.02;;;18.10;99.90;;;;;;4951488;29;20032;-87
2023/09/20 00:47:06;;;;;;;5.07;1.08;;;18.10;99.90;;;;;;4948017;28;20114;-86
2023/09/20 00:49:34;;;;;;;7.03;1.25;;;18.00;99.90;;;;;;4949457;29;20536;-86
2023/09/20 00:52:03;;;;;;;4.75;1.00;;;18.00;99.90;;;;;;4932694;29;20032;-86
2023/09/20 00:54:28;;;;;;;4.72;1.05;;;17.90;99.90;;;;;;4951287;29;20091;-86
2023/09/20 00:56:54;;;;;;;16.98;1.98;;;17.80;99.90;;;;;;4936328;29;20307;-86
2023/09/20 00:59:21;;;;;;;6.85;1.08;;;17.80;99.90;;;;;;4950069;29;20649;-86
2023/09/20 01:01:47;;;;;;;5.00;1.05;;;17.70;99.90;;;;;;4949598;29;20034;-87
2023/09/20 01:04:13;;;;;;;6.63;1.40;;;17.60;99.90;;;;;;4935109;29;20028;-86
2023/09/20 01:06:41;;;;;;;4.88;0.80;;;17.50;99.90;;;;;;4948646;29;20027;-86
2023/09/20 01:09:07;;;;;;;4.03;1.00;;;17.40;99.90;;;;;;4949829;29;20039;-86
2023/09/20 01:11:33;;;;;;;8.10;1.42;;;17.40;99.90;;;;;;4930724;29;20031;-87
2023/09/20 01:13:59;;;;;;;4.85;0.82;;;17.20;99.90;;;;;;4935711;29;20284;-86
2023/09/20 01:16:25;;;;;;;4.82;0.80;;;17.20;99.90;;;;;;4948802;28;20405;-86
2023/09/20 01:18:50;;;;;;;4.00;0.82;;;17.10;99.90;;;;;;4951081;28;20571;-86
2023/09/20 01:21:16;;;;;;;6.13;0.95;;;17.00;99.90;;;;;;4950671;29;20167;-86
2023/09/20 01:23:42;;;;;;;3.55;0.80;;;17.00;99.90;;;;;;4949799;29;20028;-87
2023/09/20 01:26:09;;;;;;;5.07;0.70;;;16.90;99.90;;;;;;4949771;29;20046;-86
2023/09/20 01:28:35;;;;;;;6.55;1.00;;;16.90;99.90;;;;;;4925794;29;20090;-86
2023/09/20 01:31:04;;;;;;;4.53;0.80;;;16.80;99.90;;;;;;4949993;28;20067;-87
2023/09/20 01:33:30;;;;;;;7.75;0.93;;;16.80;99.90;;;;;;4950615;28;20400;-86
2023/09/20 01:35:55;;;;;;;6.07;0.88;;;16.80;99.90;;;;;;4949679;29;20036;-87
2023/09/20 01:38:20;;;;;;;9.00;1.10;;;16.80;99.90;;;;;;4936651;29;20035;-86
2023/09/20 01:40:46;;;;;;;6.55;1.23;;;16.70;99.90;;;;;;4950101;29;20028;-87
2023/09/20 01:43:13;;;;;;;7.60;0.90;;;16.70;99.90;;;;;;4945390;29;20063;-86
2023/09/20 01:45:42;;;;;;;5.90;1.00;;;16.70;99.90;;;;;;4943404;28;20020;-86
2023/09/20 01:48:10;;;;;;;9.18;1.30;;;16.70;99.90;;;;;;4951160;28;20034;-86
2023/09/20 01:50:36;;;;;;;6.25;1.00;;;16.60;99.90;;;;;;4947081;29;20083;-87
2023/09/20 01:53:09;;;;;;;6.57;1.00;;;16.60;99.90;;;;;;4949422;28;20028;-86
2023/09/20 01:55:37;;;;;;;4.80;0.80;;;16.60;99.90;;;;;;4949787;29;20053;-87
2023/09/20 01:58:06;;;;;;;5.47;1.08;;;16.60;99.90;;;;;;4942504;29;20128;-86
2023/09/20 02:00:32;;;;;;;6.65;1.10;;;16.60;99.90;;;;;;4931907;29;20028;-85
2023/09/20 02:05:56;;;;;;;4.30;0.70;;;16.60;99.90;;;;;;4926006;29;20046;-85
2023/09/20 02:08:22;;;;;;;4.75;1.00;;;16.50;99.90;;;;;;4949082;28;20023;-86
2023/09/20 02:10:47;;;;;;;3.70;0.80;;;16.50;99.90;;;;;;4935193;29;20020;-86
2023/09/20 02:13:16;;;;;;;9.18;1.17;;;16.50;99.90;;;;;;4945920;28;20079;-87
2023/09/20 02:15:43;;;;;;;6.80;0.82;;;16.50;99.90;;;;;;4947971;28;20043;-86
2023/09/20 02:18:09;;;;;;;5.93;0.70;;;16.40;99.90;;;;;;4950260;29;20020;-86
2023/09/20 02:20:36;;;;;;;5.82;1.05;;;16.30;99.90;;;;;;4947506;29;20043;-86
2023/09/20 02:23:03;;;;;;;7.57;1.15;;;16.40;99.90;;;;;;4949383;29;20392;-86
2023/09/20 02:25:29;;;;;;;5.40;1.20;;;16.30;99.90;;;;;;4934376;29;20031;-85
2023/09/20 02:27:59;;;;;;;4.53;0.90;;;16.40;99.90;;;;;;4946561;29;20027;-86
2023/09/20 02:30:35;;;;;;;8.70;1.15;;;16.30;99.90;;;;;;4948768;29;20035;-86
2023/09/20 02:33:05;;;;;;;3.42;0.80;;;16.30;99.90;;;;;;4929945;29;20059;-86
2023/09/20 02:35:31;;;;;;;6.55;1.00;;;16.30;99.90;;;;;;4947976;29;20046;-86
2023/09/20 02:37:58;;;;;;;4.82;0.75;;;16.20;99.90;;;;;;4933349;29;20031;-85
2023/09/20 02:40:24;;;;;;;4.53;1.17;;;16.20;99.90;;;;;;4931945;29;20031;-85
2023/09/20 02:42:51;;;;;;;2.67;0.80;;;16.20;99.90;;;;;;4948534;29;20024;-86
2023/09/20 02:45:18;;;;;;;5.05;1.17;;;16.20;99.90;;;;;;4941061;28;20036;-85
2023/09/20 02:47:46;;;;;;;4.88;1.00;;;16.10;99.90;;;;;;4933760;29;20376;-86
2023/09/20 02:50:13;;;;;;;4.03;0.77;;;16.10;99.90;;;;;;4933556;29;20040;-85
2023/09/20 02:52:42;;;;;;;5.30;0.90;;;16.10;99.90;;;;;;4945910;28;20055;-86
2023/09/20 02:55:08;;;;;;;2.53;0.75;;;16.00;99.90;;;;;;4932776;29;20135;-86
2023/09/20 02:57:37;;;;;;;6.03;0.65;;;16.00;99.90;;;;;;4947809;29;20047;-86
2023/09/20 03:00:16;;;;;;;4.95;1.40;;;15.90;99.90;;;;;;4936717;29;20114;-86
2023/09/20 03:02:44;;;;;;;5.43;1.08;;;15.90;99.90;;;;;;4952756;29;20024;-86
2023/09/20 03:05:11;;;;;;;4.40;1.33;;;15.90;99.90;;;;;;4938272;29;20063;-86
2023/09/20 03:07:37;;;;;;;5.15;1.20;;;15.90;99.90;;;;;;4937217;29;20028;-86
2023/09/20 03:10:05;;;;;;;5.05;0.95;;;15.90;99.90;;;;;;4952387;29;20031;-86
2023/09/20 03:12:32;;;;;;;4.68;1.05;;;15.80;99.90;;;;;;4951773;28;20032;-86
2023/09/20 03:15:02;;;;;;;7.32;1.05;;;15.80;99.90;;;;;;4952409;28;20035;-86
2023/09/20 03:17:30;;;;;;;4.88;1.20;;;15.80;99.90;;;;;;4952797;29;20040;-85
2023/09/20 03:19:57;;;;;;;4.82;1.08;;;15.80;99.90;;;;;;4951897;28;20148;-86
2023/09/20 03:22:22;;;;;;;4.40;0.80;;;15.80;99.90;;;;;;4951550;28;20031;-86
2023/09/20 03:24:48;;;;;;;5.22;1.48;;;15.80;99.90;;;;;;4951289;28;20037;-86
2023/09/20 03:27:15;;;;;;;5.15;0.95;;;15.80;99.90;;;;;;4950899;29;20020;-86
2023/09/20 03:29:42;;;;;;;5.05;1.35;;;15.80;99.90;;;;;;4952372;29;20447;-86
2023/09/20 03:32:08;;;;;;;6.47;1.00;;;15.80;99.90;;;;;;4951294;28;20043;-86
2023/09/20 03:34:34;;;;;;;7.55;1.35;;;15.80;99.90;;;;;;4952913;29;20047;-86
2023/09/20 03:36:59;;;;;;;4.38;0.90;;;15.90;99.90;;;;;;4952466;29;20467;-86
2023/09/20 03:39:25;;;;;;;5.38;1.17;;;15.90;99.90;;;;;;4951292;28;20042;-86
2023/09/20 03:41:51;;;;;;;6.18;1.17;;;15.90;99.90;;;;;;4952243;28;20023;-86
2023/09/20 03:44:18;;;;;;;2.95;1.27;;;16.00;99.90;;;;;;4930367;29;20027;-86
2023/09/20 03:46:44;;;;;;;8.70;1.40;;;16.00;99.90;;;;;;4932425;29;20374;-86
2023/09/20 03:49:10;;;;;;;5.57;1.02;;;16.00;99.90;;;;;;4934583;29;20051;-86
2023/09/20 03:51:36;;;;;;;5.75;1.27;;;16.10;99.90;;;;;;4951129;29;20267;-87
2023/09/20 03:54:02;;;;;;;5.05;1.20;;;16.10;99.90;;;;;;4941446;29;20067;-86
2023/09/20 03:56:28;;;;;;;7.60;1.25;;;16.20;99.90;;;;;;4951849;28;20039;-86
2023/09/20 03:58:55;;;;;;;5.80;1.00;;;16.30;99.90;;;;;;4935751;29;20024;-87
2023/09/20 04:01:21;;;;;;;6.80;1.15;;;16.40;99.90;;;;;;4935797;29;20167;-86
2023/09/20 04:03:46;;;;;;;7.80;1.38;;;16.50;99.90;;;;;;4952002;28;20118;-86
2023/09/20 04:06:12;;;;;;;6.13;1.52;;;16.60;99.90;;;;;;4951958;28;20044;-86
2023/09/20 04:08:37;;;;;;;4.35;1.25;;;16.60;99.90;;;;;;4935461;29;20024;-86
2023/09/20 04:11:05;;;;;;;4.28;1.15;;;16.70;99.90;;;;;;4933192;29;20043;-86
2023/09/20 04:13:31;;;;;;;7.07;1.50;;;16.70;99.90;;;;;;4936851;29;20019;-86
2023/09/20 04:15:56;;;;;;;6.55;1.13;;;16.60;99.90;;;;;;4949068;28;20540;-86
2023/09/20 04:18:22;;;;;;;11.60;2.20;;;16.60;99.90;;;;;;4951411;28;20433;-85
2023/09/20 04:20:47;;;;;;;5.05;1.17;;;16.60;99.90;;;;;;4936713;29;20401;-86
2023/09/20 04:23:13;;;;;;;5.13;1.30;;;16.50;99.90;;;;;;4950926;28;20547;-86
2023/09/20 04:25:39;;;;;;;4.32;1.08;;;16.50;99.90;;;;;;4935612;29;20027;-85
2023/09/20 04:28:05;;;;;;;5.00;1.58;;;16.40;99.90;;;;;;4928816;29;20023;-87
2023/09/20 04:30:31;;;;;;;10.20;1.40;;;16.40;99.90;;;;;;4951791;29;20491;-87
2023/09/20 04:32:56;;;;;;;5.45;1.10;;;16.30;99.90;;;;;;4934084;29;20048;-86
2023/09/20 04:35:22;;;;;;;7.35;1.20;;;16.20;99.90;;;;;;4935886;29;20040;-85
2023/09/20 04:37:48;;;;;;;6.38;1.33;;;16.10;99.90;;;;;;4934961;29;20030;-87
2023/09/20 04:40:13;;;;;;;7.43;1.20;;;16.10;99.90;;;;;;4950715;29;20047;-87
2023/09/20 04:42:39;;;;;;;7.03;1.20;;;16.00;99.90;;;;;;4950654;29;20031;-87
2023/09/20 04:45:07;;;;;;;4.75;1.30;;;16.00;99.90;;;;;;4951691;28;20086;-86
2023/09/20 04:47:35;;;;;;;6.72;1.85;;;16.00;99.90;;;;;;4951263;29;20113;-86
2023/09/20 04:50:02;;;;;;;8.20;1.23;;;15.90;99.90;;;;;;4936139;29;20033;-86
2023/09/20 04:52:27;;;;;;;6.18;1.15;;;15.90;99.90;;;;;;4923159;29;20032;-86
2023/09/20 04:54:54;;;;;;;4.63;1.20;;;15.90;99.90;;;;;;4928010;29;20431;-86
2023/09/20 04:57:20;;;;;;;5.35;1.38;;;15.90;99.90;;;;;;4947917;28;20030;-86
2023/09/20 04:59:45;;;;;;;3.45;1.17;;;15.90;99.90;;;;;;4948475;29;20028;-86
2023/09/20 05:02:13;;;;;;;6.57;1.60;;;15.80;99.90;;;;;;4949495;29;20035;-86
2023/09/20 05:04:38;;;;;;;8.23;1.42;;;15.80;99.90;;;;;;4951387;29;20030;-86
2023/09/20 05:07:07;;;;;;;4.60;1.20;;;15.80;99.90;;;;;;4935453;29;20106;-87
2023/09/20 05:09:35;;;;;;;7.47;1.92;;;15.80;99.90;;;;;;4949902;28;20054;-86
2023/09/20 05:12:02;;;;;;;8.07;1.33;;;15.70;99.90;;;;;;4942186;29;20020;-87
2023/09/20 05:14:28;;;;;;;3.45;0.90;;;15.70;99.90;;;;;;4950383;29;20027;-86
2023/09/20 05:16:53;;;;;;;6.47;1.23;;;15.70;99.90;;;;;;4943783;29;20510;-87
2023/09/20 05:19:19;;;;;;;7.07;1.60;;;15.60;99.90;;;;;;4959979;28;20031;-87
2023/09/20 05:21:45;;;;;;;5.45;1.27;;;15.60;99.90;;;;;;4955351;28;20042;-86
2023/09/20 05:24:10;;;;;;;4.70;1.27;;;15.60;99.90;;;;;;4949636;29;20055;-86
2023/09/20 05:26:36;;;;;;;6.18;1.40;;;15.60;99.90;;;;;;4937486;28;21792;-86
2023/09/20 05:29:03;;;;;;;6.85;1.67;;;15.60;99.90;;;;;;4933707;29;20044;-87
2023/09/20 05:31:29;;;;;;;3.85;0.98;;;15.60;99.90;;;;;;4948030;28;20051;-86
2023/09/20 05:33:55;;;;;;;7.35;1.38;;;15.60;99.90;;;;;;4938652;29;20254;-87
2023/09/20 05:36:23;;;;;;;5.93;1.40;;;15.60;99.90;;;;;;4955635;29;20039;-88
2023/09/20 05:38:49;;;;;;;7.78;1.40;;;15.60;99.90;;;;;;4952490;28;20031;-85
2023/09/20 05:41:17;;;;;;;7.40;1.13;;;15.60;99.90;;;;;;4955456;29;20393;-87
2023/09/20 05:43:42;;;;;;;5.85;1.20;;;15.70;99.90;;;;;;4955769;28;20023;-87
2023/09/20 05:46:08;;;;;;;4.50;1.00;;;15.70;99.90;;;;;;4952396;28;20046;-88
2023/09/20 05:48:35;;;;;;;5.15;1.20;;;15.70;99.90;;;;;;4946243;28;20526;-88
2023/09/20 05:51:01;;;;;;;4.35;1.17;;;15.70;99.90;;;;;;4952402;29;20042;-88
2023/09/20 05:53:28;;;;;;;6.85;1.23;;;15.80;99.90;;;;;;4935014;29;20020;-88
2023/09/20 05:55:54;;;;;;;6.75;0.93;;;15.80;99.90;;;;;;4950974;28;20035;-88
2023/09/20 05:58:19;;;;;;;8.80;1.80;;;15.80;99.90;;;;;;4954250;28;20038;-88
2023/09/20 06:00:45;;;;;;;4.63;1.52;;;15.90;99.90;;;;;;4964899;28;20042;-87
2023/09/20 06:03:12;;;;;;;6.38;1.50;;;16.00;99.90;;;;;;4965707;28;20023;-88
2023/09/20 06:05:39;;;;;;;6.68;1.70;;;16.00;99.90;;;;;;4958590;28;20078;-88
2023/09/20 06:08:07;;;;;;;5.03;1.15;;;16.10;99.90;;;;;;4953268;29;20464;-88
2023/09/20 06:10:33;;;;;;;5.90;1.50;;;16.20;99.90;;;;;;4953100;29;20031;-88
2023/09/20 06:12:59;;;;;;;4.75;1.45;;;16.20;99.90;;;;;;4954147;28;20480;-86
2023/09/20 06:15:25;;;;;;;5.80;1.40;;;16.40;99.90;;;;;;4952811;29;20046;-87
2023/09/20 06:17:51;;;;;;;4.30;1.33;;;16.40;99.90;;;;;;4950564;28;20114;-87
2023/09/20 06:20:21;;;;;;;4.35;1.17;;;16.50;99.90;;;;;;4941228;29;20019;-88
2023/09/20 06:22:48;;;;;;;4.68;0.90;;;16.50;99.90;;;;;;4955418;28;20112;-88
2023/09/20 06:25:15;;;;;;;5.85;1.30;;;16.60;99.90;;;;;;4954574;28;20163;-88
2023/09/20 06:27:41;;;;;;;4.05;1.08;;;16.70;99.90;;;;;;4937980;29;20031;-88
2023/09/20 06:30:07;;;;;;;7.45;1.60;;;16.70;99.90;;;;;;4940042;28;20035;-88
2023/09/20 06:32:37;;;;;;;5.60;1.38;;;16.90;99.90;;;;;;4951053;29;20043;-88
2023/09/20 06:35:03;;;;;;;4.90;1.38;;;16.90;99.90;;;;;;4955981;28;20035;-88
2023/09/20 06:37:29;;;;;;;5.75;1.27;;;16.90;99.90;;;;;;4955901;28;20030;-90
2023/09/20 06:39:56;;;;;;;7.53;1.73;;;17.00;99.90;;;;;;4956707;29;20114;-88
2023/09/20 06:42:37;;;;;;;4.88;1.42;;;17.00;99.90;;;;;;4955658;28;20506;-89
2023/09/20 06:45:02;;;;;;;9.40;1.50;;;17.10;99.90;;;;;;4948671;29;20057;-89
2023/09/20 06:47:28;;;;;;;10.00;1.60;;;17.10;99.90;;;;;;4956654;28;20027;-88
2023/09/20 06:49:54;;;;;;;6.60;1.40;;;17.10;99.90;;;;;;4953383;28;20037;-89
2023/09/20 06:52:19;;;;;;;7.57;1.65;;;17.20;99.90;;;;;;4953136;29;20027;-89
2023/09/20 06:54:45;;;;;;;4.88;1.25;;;17.30;99.90;;;;;;4956031;29;20114;-87
2023/09/20 06:57:17;;;;;;;6.45;1.17;;;17.40;99.90;;;;;;4951410;28;20031;-87
2023/09/20 06:59:44;;;;;;;4.85;1.27;;;17.40;99.90;;;;;;4954199;28;20089;-87
2023/09/20 07:02:12;;;;;;;3.08;1.00;;;17.50;99.90;;;;;;4948457;28;20031;-90
2023/09/20 07:04:39;;;;;;;6.90;1.40;;;17.60;99.90;;;;;;4944311;28;20020;-89
2023/09/20 07:07:05;;;;;;;9.57;1.08;;;17.60;99.90;;;;;;4952302;28;20031;-89
2023/09/20 07:09:31;;;;;;;5.40;1.58;;;17.60;99.90;;;;;;4947990;29;20460;-89
2023/09/20 07:12:01;;;;;;;2.78;1.10;;;17.70;99.90;;;;;;4920621;29;20062;-88
2023/09/20 07:14:30;;;;;;;6.05;1.00;;;17.80;99.90;;;;;;4938556;29;20020;-91
2023/09/20 07:16:55;;;;;;;6.40;1.20;;;17.90;99.90;;;;;;4953295;28;20047;-83
2023/09/20 07:19:23;;;;;;;4.22;0.90;;;18.00;99.90;;;;;;4936794;29;20501;-86
2023/09/20 07:21:50;;;;;;;4.72;0.90;;;18.10;99.90;;;;;;4938036;28;20062;-85
2023/09/20 07:24:15;;;;;;;3.88;0.93;;;18.10;99.90;;;;;;4933864;29;20057;-88
2023/09/20 07:26:45;;;;;;;3.17;0.95;;;18.10;99.90;;;;;;4958254;28;20023;-88
2023/09/20 07:29:14;;;;;;;5.57;1.10;;;18.10;99.90;;;;;;4933940;29;20032;-88
2023/09/20 07:31:40;;;;;;;5.53;1.08;;;18.10;99.90;;;;;;4953330;29;20083;-89
2023/09/20 07:34:06;;;;;;;5.35;0.82;;;18.10;99.90;;;;;;4948453;28;20123;-88
2023/09/20 07:36:37;;;;;;;4.22;0.80;;;18.20;99.90;;;;;;4950332;28;20039;-89
2023/09/20 07:39:08;;;;;;;3.50;1.13;;;18.20;99.90;;;;;;4941462;28;20031;-88
2023/09/20 07:41:33;;;;;;;7.47;0.70;;;18.20;99.90;;;;;;4952730;28;20527;-89
2023/09/20 07:43:59;;;;;;;2.65;0.88;;;18.30;99.90;;;;;;4947143;28;20031;-88
2023/09/20 07:46:24;;;;;;;4.32;0.80;;;18.40;99.90;;;;;;4954353;29;20031;-87
2023/09/20 07:48:50;;;;;;;2.67;0.63;;;18.50;99.90;;;;;;4930624;29;20023;-87
2023/09/20 07:51:23;;;;;;;7.28;1.23;;;18.60;99.90;;;;;;4950618;28;20463;-87
2023/09/20 07:53:53;;;;;;;3.45;0.77;;;18.60;99.90;;;;;;4948752;28;20042;-87
2023/09/20 07:56:20;;;;;;;3.53;0.85;;;18.60;99.90;;;;;;4957869;29;20134;-88
2023/09/20 07:58:46;;;;;;;3.33;0.80;;;18.70;99.90;;;;;;4956744;29;20035;-87
2023/09/20 08:01:21;;;;;;;6.90;1.17;;;18.70;99.90;;;;;;4956766;29;20032;-88
2023/09/20 08:03:58;;;;;;;4.10;0.70;;;18.80;99.90;;;;;;4955364;28;20099;-87
2023/09/20 08:06:34;;;;;;;4.30;0.77;;;18.90;99.90;;;;;;4954812;28;20031;-87
2023/09/20 08:09:01;;;;;;;6.57;0.70;;;19.10;99.90;;;;;;4940781;29;20027;-87
2023/09/20 08:11:27;;;;;;;2.00;0.63;;;19.30;99.90;;;;;;4955891;29;20056;-88
2023/09/20 08:13:54;;;;;;;6.72;1.15;;;19.40;99.90;;;;;;4939678;29;20110;-88
2023/09/20 08:16:21;;;;;;;4.75;0.80;;;19.60;99.90;;;;;;4957101;28;20035;-88
2023/09/20 08:21:32;;;;;;;4.25;0.85;;;19.70;99.90;;;;;;4952534;28;20038;-90
2023/09/20 09:00:07;;;;;;;5.75;0.80;;;19.90;99.90;;;;;;4956609;29;20042;-87
2023/09/20 09:02:35;;;;;;;2.55;0.60;;;20.00;99.90;;;;;;4930429;29;20089;-88
2023/09/20 09:05:03;;;;;;;2.97;1.05;;;20.10;99.90;;;;;;4946478;28;20031;-88
2023/09/20 09:07:29;;;;;;;3.35;0.75;;;20.10;99.90;;;;;;4951716;28;20079;-89
2023/09/20 09:09:55;;;;;;;2.55;0.60;;;20.10;99.90;;;;;;4946811;29;20035;-88
2023/09/20 09:12:21;;;;;;;4.40;0.70;;;20.10;99.90;;;;;;4950008;29;20030;-88
2023/09/20 09:14:48;;;;;;;3.05;0.70;;;20.10;99.90;;;;;;4928088;29;20545;-87
2023/09/20 09:17:14;;;;;;;4.88;0.73;;;20.20;99.90;;;;;;4947464;29;20066;-88
2023/09/20 09:19:40;;;;;;;7.05;1.00;;;20.20;99.90;;;;;;4948766;28;20483;-87
2023/09/20 09:22:06;;;;;;;7.35;1.50;;;20.20;99.90;;;;;;4949645;28;20027;-88
2023/09/20 09:24:45;;;;;;;5.78;1.42;;;20.20;99.90;;;;;;4944691;28;20114;-88
2023/09/20 09:27:11;;;;;;;4.85;0.90;;;20.30;99.90;;;;;;4947475;29;20034;-88
2023/09/20 09:29:38;;;;;;;4.25;1.13;;;20.30;99.90;;;;;;4927874;29;20094;-89
2023/09/20 09:32:04;;;;;;;6.65;1.20;;;20.40;99.90;;;;;;4948465;29;20514;-88
2023/09/20 09:34:31;;;;;;;4.82;1.10;;;20.40;99.90;;;;;;4950563;28;20027;-88
2023/09/20 09:36:57;;;;;;;3.70;1.20;;;20.40;99.90;;;;;;4937513;29;20070;-87
2023/09/20 09:39:25;;;;;;;7.82;1.10;;;20.30;99.90;;;;;;4949312;29;20117;-88
2023/09/20 09:41:51;;;;;;;7.28;1.60;;;20.30;99.90;;;;;;4945975;29;20027;-88
2023/09/20 09:44:17;;;;;;;8.50;1.80;;;20.30;99.90;;;;;;4949141;29;20035;-89
2023/09/20 09:46:43;;;;;;;4.53;1.25;;;20.20;99.90;;;;;;4929775;29;20030;-87
2023/09/20 09:49:12;;;;;;;5.45;1.40;;;20.20;99.90;;;;;;4935245;29;20035;-88
2023/09/20 09:51:45;;;;;;;6.80;1.33;;;20.20;99.90;;;;;;4934269;29;20039;-86
2023/09/20 09:54:13;;;;;;;6.20;1.00;;;20.30;99.90;;;;;;4949373;29;20035;-88
2023/09/20 09:56:40;;;;;;;5.50;1.67;;;20.30;99.90;;;;;;4949388;28;20488;-88
2023/09/20 09:59:06;;;;;;;3.50;0.90;;;20.50;99.90;;;;;;4934278;29;20039;-88
2023/09/20 10:01:36;;;;;;;7.25;1.20;;;20.50;99.90;;;;;;4932908;29;20035;-89
2023/09/20 10:04:08;;;;;;;2.42;0.70;;;20.60;99.90;;;;;;4948879;28;20038;-89
2023/09/20 10:07:01;;;;;;;4.45;1.15;;;20.70;99.90;;;;;;4951756;28;20404;-88
2023/09/20 10:09:35;;;;;;;5.13;1.00;;;20.90;99.90;;;;;;4946973;28;20506;-88
2023/09/20 10:12:02;;;;;;;3.03;0.85;;;21.00;99.90;;;;;;4951380;29;20027;-88
2023/09/20 10:14:28;;;;;;;4.10;1.00;;;21.00;99.90;;;;;;4953728;29;20080;-87
2023/09/20 10:16:54;;;;;;;3.72;1.10;;;21.10;99.90;;;;;;4952883;29;20031;-88
2023/09/20 10:19:20;;;;;;;3.75;0.90;;;21.20;99.90;;;;;;4937445;29;20361;-87
2023/09/20 10:22:09;;;;;;;2.83;0.90;;;21.30;99.90;;;;;;4953421;29;20043;-88
2023/09/20 10:24:58;;;;;;;3.35;0.90;;;21.60;99.90;;;;;;4932076;29;20028;-88
2023/09/20 10:27:27;;;;;;;3.25;0.63;;;21.70;99.90;;;;;;4930485;29;20099;-88
2023/09/20 10:30:05;;;;;;;5.38;1.00;;;21.80;99.90;;;;;;4955112;29;20107;-88
2023/09/20 10:32:48;;;;;;;3.15;0.90;;;21.80;99.90;;;;;;4948906;28;20051;-88
2023/09/20 10:35:29;;;;;;;3.00;0.68;;;21.70;99.90;;;;;;4936684;28;20035;-88
2023/09/20 10:38:20;;;;;;;2.17;0.80;;;21.90;99.90;;;;;;4946640;29;20091;-88
2023/09/20 10:40:45;;;;;;;3.25;0.70;;;21.90;99.90;;;;;;4949256;29;20554;-88
2023/09/20 10:43:34;;;;;;;3.22;0.60;;;21.80;99.90;;;;;;4954409;29;20027;-89
2023/09/20 10:46:10;;;;;;;2.25;0.70;;;21.70;99.90;;;;;;4934435;29;20587;-89
2023/09/20 10:48:39;;;;;;;2.70;0.80;;;21.70;99.90;;;;;;4954008;28;20046;-89
2023/09/20 10:51:06;;;;;;;3.67;0.70;;;21.70;99.90;;;;;;4951199;29;20074;-89
2023/09/20 10:53:44;;;;;;;2.22;0.60;;;21.80;99.90;;;;;;4942830;28;20023;-88
2023/09/20 10:56:31;;;;;;;3.33;0.60;;;21.90;99.90;;;;;;4934406;29;20050;-88
2023/09/20 10:58:59;;;;;;;4.13;0.77;;;21.90;99.90;;;;;;4944129;28;20062;-88
2023/09/20 11:01:25;;;;;;;4.10;0.65;;;22.10;99.90;;;;;;4950245;29;20035;-88
2023/09/20 11:03:51;;;;;;;3.25;0.80;;;22.20;99.90;;;;;;4947897;29;20555;-89
2023/09/20 11:06:17;;;;;;;2.45;1.00;;;22.20;99.90;;;;;;4932942;29;20031;-88
2023/09/20 11:08:43;;;;;;;5.28;0.68;;;22.30;99.90;;;;;;4950062;28;20032;-87
2023/09/20 11:11:15;;;;;;;2.60;0.80;;;22.40;99.90;;;;;;4948006;28;20145;-88
2023/09/20 11:13:46;;;;;;;4.18;0.55;;;22.40;99.90;;;;;;4944515;29;20159;-89
2023/09/20 11:16:13;;;;;;;1.73;0.50;;;22.40;99.90;;;;;;4950783;29;20067;-90
2023/09/20 11:18:41;;;;;;;2.15;0.50;;;22.30;99.90;;;;;;4955599;28;20114;-89
2023/09/20 11:21:07;;;;;;;3.15;0.50;;;22.30;99.90;;;;;;4955540;29;20106;-90
2023/09/20 11:23:34;;;;;;;1.83;0.40;;;22.20;99.90;;;;;;4934922;29;20074;-89
2023/09/20 11:26:00;;;;;;;3.83;0.50;;;22.20;99.90;;;;;;4955187;29;20195;-87
2023/09/20 11:28:27;;;;;;;2.38;0.40;;;22.10;99.90;;;;;;4954531;29;20071;-87
2023/09/20 11:30:52;;;;;;;2.45;0.50;;;22.10;99.90;;;;;;4956898;28;20047;-88
2023/09/20 11:33:28;;;;;;;3.33;0.77;;;22.00;99.90;;;;;;4957019;29;20503;-87
2023/09/20 11:35:54;;;;;;;4.18;1.13;;;21.90;99.90;;;;;;4952288;29;20043;-87
2023/09/20 11:38:21;;;;;;;3.78;0.70;;;21.90;99.90;;;;;;4940627;29;20023;-89
2023/09/20 11:40:47;;;;;;;2.45;0.50;;;22.00;99.90;;;;;;4939514;29;20023;-88
2023/09/20 11:43:20;;;;;;;3.03;0.45;;;21.90;99.90;;;;;;4950898;28;20034;-87
2023/09/20 11:45:48;;;;;;;1.70;0.45;;;22.00;99.90;;;;;;4946978;28;20792;-86
2023/09/20 11:48:15;;;;;;;3.65;0.50;;;22.00;99.90;;;;;;4949726;29;20058;-87
2023/09/20 11:50:43;;;;;;;2.67;0.50;;;21.90;99.90;;;;;;4935600;29;20479;-87
2023/09/20 11:53:14;;;;;;;4.18;1.00;;;21.90;99.90;;;;;;4955520;28;20054;-88
2023/09/20 11:55:43;;;;;;;1.17;0.40;;;21.90;99.90;;;;;;4948282;29;20031;-88
2023/09/20 11:58:10;;;;;;;2.03;0.40;;;21.90;99.90;;;;;;4939287;29;20495;-88
2023/09/20 12:00:35;;;;;;;2.50;0.40;;;21.90;99.90;;;;;;4956576;28;20027;-88
2023/09/20 12:03:02;;;;;;;1.80;0.50;;;21.90;99.90;;;;;;4957539;29;20037;-89
2023/09/20 12:05:28;;;;;;;4.57;0.45;;;22.00;99.90;;;;;;4955904;29;20035;-87
2023/09/20 12:07:59;;;;;;;2.72;0.50;;;22.20;99.90;;;;;;4956746;29;20027;-88
2023/09/20 12:10:26;;;;;;;1.23;0.35;;;22.40;99.90;;;;;;4953487;29;20118;-87
2023/09/20 12:12:52;;;;;;;3.97;0.43;;;22.50;99.90;;;;;;4956201;29;20077;-87
2023/09/20 12:15:19;;;;;;;2.03;0.40;;;22.50;99.90;;;;;;4964612;28;20027;-87
2023/09/20 12:17:47;;;;;;;5.70;1.30;;;22.60;99.90;;;;;;4960452;28;20070;-88
2023/09/20 12:20:15;;;;;;;2.70;0.55;;;22.60;99.90;;;;;;4948799;28;20019;-88
2023/09/20 12:22:42;;;;;;;3.05;0.60;;;22.60;99.90;;;;;;4940266;29;20031;-88
2023/09/20 12:25:11;;;;;;;2.85;0.70;;;22.50;99.90;;;;;;4955290;28;20035;-88
2023/09/20 12:27:36;;;;;;;4.00;0.40;;;22.50;99.90;;;;;;4955280;28;20054;-88
2023/09/20 12:30:04;;;;;;;1.77;0.60;;;22.60;99.90;;;;;;4954800;28;20506;-87
2023/09/20 12:32:31;;;;;;;3.15;0.52;;;22.70;99.90;;;;;;4955742;29;20051;-87
2023/09/20 12:34:57;;;;;;;3.15;0.75;;;22.70;99.90;;;;;;4955967;29;20031;-88
2023/09/20 12:37:23;;;;;;;3.20;0.90;;;22.60;99.90;;;;;;4941402;29;20082;-87
2023/09/20 12:39:49;;;;;;;3.85;0.60;;;22.50;99.90;;;;;;4955144;28;20031;-88
2023/09/20 12:42:14;;;;;;;4.05;0.60;;;22.60;99.90;;;;;;4934091;29;20042;-87
2023/09/20 12:44:40;;;;;;;4.10;0.50;;;22.60;99.90;;;;;;4943095;28;20024;-88
2023/09/20 12:47:07;;;;;;;2.92;0.70;;;22.70;99.90;;;;;;4953145;29;20139;-88
2023/09/20 12:49:36;;;;;;;2.35;0.45;;;22.70;99.90;;;;;;4955985;29;20118;-88
2023/09/20 12:52:04;;;;;;;3.17;0.60;;;22.80;99.90;;;;;;4955104;28;20049;-87
2023/09/20 12:54:30;;;;;;;2.33;0.50;;;22.70;99.90;;;;;;4939558;29;20078;-88
2023/09/20 12:56:57;;;;;;;2.30;0.50;;;22.60;99.90;;;;;;4953882;28;20050;-89
2023/09/20 12:59:26;;;;;;;3.85;0.60;;;22.70;99.90;;;;;;4930607;28;20114;-90
2023/09/20 13:01:54;;;;;;;2.03;0.40;;;22.80;99.90;;;;;;4937565;29;20138;-90
2023/09/20 13:04:20;;;;;;;2.33;0.40;;;23.00;99.90;;;;;;4941884;29;20037;-88
2023/09/20 13:06:46;;;;;;;3.40;0.60;;;23.10;99.90;;;;;;4954217;28;20477;-87
2023/09/20 13:09:14;;;;;;;3.25;0.57;;;23.30;99.90;;;;;;4952875;28;20031;-89
2023/09/20 13:11:41;;;;;;;4.55;0.50;;;23.30;99.90;;;;;;4950837;28;20031;-90
2023/09/20 13:14:07;;;;;;;1.85;0.65;;;23.20;99.90;;;;;;4952545;28;20055;-90
2023/09/20 13:16:34;;;;;;;2.80;0.50;;;23.10;99.90;;;;;;4949638;28;20047;-89
2023/09/20 13:19:01;;;;;;;3.13;0.60;;;23.10;99.90;;;;;;4951844;28;20035;-88
2023/09/20 13:21:28;;;;;;;3.60;0.65;;;23.10;99.90;;;;;;4953340;28;20035;-91
2023/09/20 13:23:54;;;;;;;2.80;0.60;;;23.10;99.90;;;;;;4944495;28;20476;-89
2023/09/20 13:26:21;;;;;;;3.05;0.40;;;23.20;99.90;;;;;;4932979;28;20031;-89
2023/09/20 13:28:46;;;;;;;3.20;0.45;;;23.20;99.90;;;;;;4947924;28;20607;-89